Terminal Aerodrome Forecast
Issued by NWS

Home | Current Version | Previous Version | Graphics & Text | Print | Product List | Glossary On
Versions: 1 2 3 4 5 6 7 8 9 10 11 12 13 14 15 16
936
FTUS43 KTOP 301522 AAC
TAFFOE
TAF AMD
KFOE 301522Z 3015/0112 29015KT P6SM BKN035
      TEMPO 3015/3017 BKN025
     FM302300 27006KT P6SM FEW040=

USA.gov is the U.S. government's official web portal to all federal, state and local government web resources and services.